sensor_id;sensor_type;location;lat;lon;timestamp;pressure;altitude;pressure_sealevel;temperature;humidity
58245;BME280;44550;43.864;25.986;2024-01-06T00:02:18;100882.53;;;8.41;100.00
58245;BME280;44550;43.864;25.986;2024-01-06T00:06:18;100888.88;;;8.57;100.00
58245;BME280;44550;43.864;25.986;2024-01-06T00:10:22;100878.38;;;8.54;100.00
58245;BME280;44550;43.864;25.986;2024-01-06T00:14:23;100867.84;;;8.46;100.00
58245;BME280;44550;43.864;25.986;2024-01-06T00:18:23;100868.56;;;8.38;100.00
58245;BME280;44550;43.864;25.986;2024-01-06T00:22:25;100856.28;;;8.32;100.00
58245;BME280;44550;43.864;25.986;2024-01-06T00:26:27;100835.31;;;8.24;100.00
58245;BME280;44550;43.864;25.986;2024-01-06T00:30:28;100790.75;;;7.64;100.00
58245;BME280;44550;43.864;25.986;2024-01-06T00:34:28;100854.00;;;8.02;100.00
58245;BME280;44550;43.864;25.986;2024-01-06T00:38:29;100848.13;;;8.14;100.00
58245;BME280;44550;43.864;25.986;2024-01-06T00:42:32;100852.13;;;7.95;100.00
58245;BME280;44550;43.864;25.986;2024-01-06T00:46:34;100859.88;;;7.93;100.00
58245;BME280;44550;43.864;25.986;2024-01-06T00:50:34;100873.41;;;8.21;100.00
58245;BME280;44550;43.864;25.986;2024-01-06T00:54:35;100879.53;;;8.23;100.00
58245;BME280;44550;43.864;25.986;2024-01-06T00:58:47;100880.66;;;8.36;100.00
58245;BME280;44550;43.864;25.986;2024-01-06T01:02:48;100875.69;;;8.48;100.00
58245;BME280;44550;43.864;25.986;2024-01-06T01:06:53;100870.44;;;8.45;100.00
58245;BME280;44550;43.864;25.986;2024-01-06T01:10:54;100852.38;;;8.56;99.71
58245;BME280;44550;43.864;25.986;2024-01-06T01:15:03;100833.63;;;8.28;99.53
58245;BME280;44550;43.864;25.986;2024-01-06T01:19:04;100889.91;;;8.67;98.54
58245;BME280;44550;43.864;25.986;2024-01-06T01:23:05;100880.34;;;8.67;96.45
58245;BME280;44550;43.864;25.986;2024-01-06T01:27:06;100876.97;;;8.73;96.28
58245;BME280;44550;43.864;25.986;2024-01-06T01:31:09;100864.03;;;8.31;97.58
58245;BME280;44550;43.864;25.986;2024-01-06T01:35:14;100862.28;;;7.83;100.00
58245;BME280;44550;43.864;25.986;2024-01-06T01:39:15;100862.69;;;7.60;100.00
58245;BME280;44550;43.864;25.986;2024-01-06T01:43:19;100849.19;;;7.37;100.00
58245;BME280;44550;43.864;25.986;2024-01-06T01:47:25;100828.66;;;7.09;100.00
58245;BME280;44550;43.864;25.986;2024-01-06T01:51:29;100838.63;;;6.92;100.00
58245;BME280;44550;43.864;25.986;2024-01-06T01:55:34;100820.19;;;6.79;100.00
58245;BME280;44550;43.864;25.986;2024-01-06T01:59:40;100829.56;;;6.73;100.00
58245;BME280;44550;43.864;25.986;2024-01-06T02:03:46;100816.44;;;6.68;100.00
58245;BME280;44550;43.864;25.986;2024-01-06T02:07:48;100825.38;;;6.79;100.00
58245;BME280;44550;43.864;25.986;2024-01-06T02:11:49;100821.19;;;6.86;100.00
58245;BME280;44550;43.864;25.986;2024-01-06T02:15:50;100807.97;;;6.77;100.00
58245;BME280;44550;43.864;25.986;2024-01-06T02:19:54;100798.91;;;6.97;100.00
58245;BME280;44550;43.864;25.986;2024-01-06T02:23:57;100805.91;;;7.00;100.00
58245;BME280;44550;43.864;25.986;2024-01-06T02:27:58;100797.53;;;7.13;100.00
58245;BME280;44550;43.864;25.986;2024-01-06T02:31:59;100801.16;;;7.21;100.00
58245;BME280;44550;43.864;25.986;2024-01-06T02:35:59;100795.53;;;7.01;100.00
58245;BME280;44550;43.864;25.986;2024-01-06T02:40:03;100794.25;;;6.82;100.00
58245;BME280;44550;43.864;25.986;2024-01-06T02:44:04;100770.59;;;6.72;100.00
58245;BME280;44550;43.864;25.986;2024-01-06T02:48:10;100782.91;;;6.79;100.00
58245;BME280;44550;43.864;25.986;2024-01-06T02:52:12;100772.25;;;6.68;100.00
58245;BME280;44550;43.864;25.986;2024-01-06T02:56:15;100758.44;;;6.69;100.00
58245;BME280;44550;43.864;25.986;2024-01-06T03:00:20;100752.47;;;6.75;100.00
58245;BME280;44550;43.864;25.986;2024-01-06T03:04:23;100770.94;;;7.26;100.00
58245;BME280;44550;43.864;25.986;2024-01-06T03:08:26;100767.41;;;7.67;100.00
58245;BME280;44550;43.864;25.986;2024-01-06T03:12:32;100749.91;;;8.07;100.00
58245;BME280;44550;43.864;25.986;2024-01-06T03:16:33;100767.09;;;8.47;100.00
58245;BME280;44550;43.864;25.986;2024-01-06T03:20:34;100757.53;;;8.46;98.37
58245;BME280;44550;43.864;25.986;2024-01-06T03:24:34;100746.25;;;7.95;98.82
58245;BME280;44550;43.864;25.986;2024-01-06T03:28:41;100744.72;;;7.60;100.00
58245;BME280;44550;43.864;25.986;2024-01-06T03:32:45;100758.72;;;7.66;100.00
58245;BME280;44550;43.864;25.986;2024-01-06T03:36:46;100742.81;;;7.98;100.00
58245;BME280;44550;43.864;25.986;2024-01-06T03:40:49;100752.22;;;8.40;99.74
58245;BME280;44550;43.864;25.986;2024-01-06T03:44:53;100754.91;;;8.46;100.00
58245;BME280;44550;43.864;25.986;2024-01-06T03:48:53;100742.03;;;8.57;100.00
58245;BME280;44550;43.864;25.986;2024-01-06T03:52:54;100740.97;;;8.44;100.00
58245;BME280;44550;43.864;25.986;2024-01-06T03:56:54;100743.53;;;8.41;100.00
58245;BME280;44550;43.864;25.986;2024-01-06T04:00:58;100741.56;;;8.28;100.00
58245;BME280;44550;43.864;25.986;2024-01-06T04:04:59;100760.53;;;8.20;100.00
58245;BME280;44550;43.864;25.986;2024-01-06T04:09:00;100756.59;;;8.42;100.00
58245;BME280;44550;43.864;25.986;2024-01-06T04:13:01;100751.81;;;8.17;100.00
58245;BME280;44550;43.864;25.986;2024-01-06T04:17:04;100753.81;;;7.83;100.00
58245;BME280;44550;43.864;25.986;2024-01-06T04:21:05;100745.13;;;7.36;100.00
58245;BME280;44550;43.864;25.986;2024-01-06T04:25:16;100761.50;;;7.32;100.00
58245;BME280;44550;43.864;25.986;2024-01-06T04:29:16;100673.78;;;6.40;100.00
58245;BME280;44550;43.864;25.986;2024-01-06T04:33:21;100766.78;;;6.56;100.00
58245;BME280;44550;43.864;25.986;2024-01-06T04:37:22;100754.63;;;6.55;100.00
58245;BME280;44550;43.864;25.986;2024-01-06T04:41:22;100751.69;;;6.40;100.00
58245;BME280;44550;43.864;25.986;2024-01-06T04:45:23;100767.38;;;6.44;100.00
58245;BME280;44550;43.864;25.986;2024-01-06T04:49:29;100772.41;;;6.38;100.00
58245;BME280;44550;43.864;25.986;2024-01-06T04:53:30;100774.91;;;6.70;100.00
58245;BME280;44550;43.864;25.986;2024-01-06T04:57:31;100765.47;;;7.14;100.00
58245;BME280;44550;43.864;25.986;2024-01-06T05:01:31;100764.94;;;7.30;100.00
58245;BME280;44550;43.864;25.986;2024-01-06T05:05:34;100745.00;;;7.31;100.00
58245;BME280;44550;43.864;25.986;2024-01-06T05:09:35;100724.47;;;7.01;100.00
58245;BME280;44550;43.864;25.986;2024-01-06T05:13:36;100757.19;;;7.32;100.00
58245;BME280;44550;43.864;25.986;2024-01-06T05:17:37;100728.53;;;6.88;100.00
58245;BME280;44550;43.864;25.986;2024-01-06T05:21:41;100761.84;;;7.06;100.00
58245;BME280;44550;43.864;25.986;2024-01-06T05:25:42;100766.63;;;6.88;100.00
58245;BME280;44550;43.864;25.986;2024-01-06T05:29:48;100771.44;;;6.69;100.00
58245;BME280;44550;43.864;25.986;2024-01-06T05:33:51;100773.34;;;6.40;100.00
58245;BME280;44550;43.864;25.986;2024-01-06T05:37:54;100772.50;;;6.06;100.00
58245;BME280;44550;43.864;25.986;2024-01-06T05:41:59;100733.81;;;5.51;100.00
58245;BME280;44550;43.864;25.986;2024-01-06T05:46:00;100773.00;;;5.61;100.00
58245;BME280;44550;43.864;25.986;2024-01-06T05:50:01;100764.25;;;5.58;100.00
58245;BME280;44550;43.864;25.986;2024-01-06T05:54:08;100768.66;;;5.60;100.00
58245;BME280;44550;43.864;25.986;2024-01-06T05:58:11;100764.78;;;5.78;100.00
58245;BME280;44550;43.864;25.986;2024-01-06T06:02:23;100773.81;;;6.25;100.00
58245;BME280;44550;43.864;25.986;2024-01-06T06:06:30;100759.94;;;6.59;100.00
58245;BME280;44550;43.864;25.986;2024-01-06T06:10:48;100753.44;;;6.41;100.00
58245;BME280;44550;43.864;25.986;2024-01-06T06:15:04;100744.44;;;6.64;100.00
58245;BME280;44550;43.864;25.986;2024-01-06T06:19:06;100749.50;;;6.96;100.00
58245;BME280;44550;43.864;25.986;2024-01-06T06:23:07;100736.66;;;7.03;100.00
58245;BME280;44550;43.864;25.986;2024-01-06T06:27:10;100729.13;;;7.17;100.00
58245;BME280;44550;43.864;25.986;2024-01-06T06:31:11;100737.72;;;7.13;100.00
58245;BME280;44550;43.864;25.986;2024-01-06T06:35:16;100732.81;;;7.27;100.00
58245;BME280;44550;43.864;25.986;2024-01-06T06:39:21;100721.47;;;7.25;100.00
58245;BME280;44550;43.864;25.986;2024-01-06T06:43:29;100713.00;;;7.34;100.00
58245;BME280;44550;43.864;25.986;2024-01-06T06:47:31;100724.09;;;7.25;100.00
58245;BME280;44550;43.864;25.986;2024-01-06T06:51:33;100737.13;;;7.26;100.00
58245;BME280;44550;43.864;25.986;2024-01-06T06:55:36;100733.78;;;7.32;100.00
58245;BME280;44550;43.864;25.986;2024-01-06T06:59:41;100727.59;;;7.27;100.00
58245;BME280;44550;43.864;25.986;2024-01-06T07:03:43;100726.00;;;7.34;100.00
58245;BME280;44550;43.864;25.986;2024-01-06T07:07:44;100746.25;;;7.48;100.00
58245;BME280;44550;43.864;25.986;2024-01-06T07:11:44;100749.84;;;8.04;100.00
58245;BME280;44550;43.864;25.986;2024-01-06T07:15:50;100758.28;;;8.39;100.00
58245;BME280;44550;43.864;25.986;2024-01-06T07:20:08;100749.03;;;8.59;100.00
58245;BME280;44550;43.864;25.986;2024-01-06T07:24:09;100740.78;;;8.89;100.00
58245;BME280;44550;43.864;25.986;2024-01-06T07:28:10;100663.03;;;8.61;100.00
58245;BME280;44550;43.864;25.986;2024-01-06T07:32:16;100743.47;;;8.97;100.00
58245;BME280;44550;43.864;25.986;2024-01-06T07:36:17;100719.63;;;8.68;100.00
58245;BME280;44550;43.864;25.986;2024-01-06T07:40:19;100715.78;;;8.43;100.00
58245;BME280;44550;43.864;25.986;2024-01-06T07:44:21;100725.09;;;8.29;100.00
58245;BME280;44550;43.864;25.986;2024-01-06T07:48:25;100730.69;;;8.52;100.00
58245;BME280;44550;43.864;25.986;2024-01-06T07:52:26;100727.50;;;8.73;100.00
58245;BME280;44550;43.864;25.986;2024-01-06T07:56:27;100722.47;;;8.86;100.00
58245;BME280;44550;43.864;25.986;2024-01-06T08:00:37;100721.59;;;8.86;100.00
58245;BME280;44550;43.864;25.986;2024-01-06T08:04:40;100721.03;;;8.46;100.00
58245;BME280;44550;43.864;25.986;2024-01-06T08:08:41;100716.22;;;8.72;100.00
58245;BME280;44550;43.864;25.986;2024-01-06T08:12:46;100689.53;;;8.91;100.00
58245;BME280;44550;43.864;25.986;2024-01-06T08:16:47;100682.13;;;9.28;98.08
58245;BME280;44550;43.864;25.986;2024-01-06T08:20:49;100732.28;;;9.82;96.14
58245;BME280;44550;43.864;25.986;2024-01-06T08:24:53;100712.47;;;10.04;93.73
58245;BME280;44550;43.864;25.986;2024-01-06T08:28:53;100715.91;;;10.00;93.52
58245;BME280;44550;43.864;25.986;2024-01-06T08:32:54;100718.53;;;10.03;93.71
58245;BME280;44550;43.864;25.986;2024-01-06T08:36:56;100695.91;;;10.02;93.20
58245;BME280;44550;43.864;25.986;2024-01-06T08:40:57;100700.50;;;10.29;92.21
58245;BME280;44550;43.864;25.986;2024-01-06T08:44:57;100694.94;;;9.92;93.00
58245;BME280;44550;43.864;25.986;2024-01-06T08:48:58;100696.56;;;9.79;94.93
58245;BME280;44550;43.864;25.986;2024-01-06T08:53:06;100692.47;;;10.09;93.38
58245;BME280;44550;43.864;25.986;2024-01-06T08:57:09;100691.81;;;10.36;93.49
58245;BME280;44550;43.864;25.986;2024-01-06T09:01:11;100677.19;;;10.61;92.09
58245;BME280;44550;43.864;25.986;2024-01-06T09:05:13;100653.38;;;10.21;91.86
58245;BME280;44550;43.864;25.986;2024-01-06T09:09:18;100625.25;;;9.85;93.30
58245;BME280;44550;43.864;25.986;2024-01-06T09:13:20;100669.00;;;10.14;93.10
58245;BME280;44550;43.864;25.986;2024-01-06T09:17:21;100653.03;;;9.75;94.27
58245;BME280;44550;43.864;25.986;2024-01-06T09:21:27;100628.28;;;9.35;95.41
58245;BME280;44550;43.864;25.986;2024-01-06T09:25:33;100626.75;;;9.58;96.17
58245;BME280;44550;43.864;25.986;2024-01-06T09:29:37;100643.63;;;9.97;94.30
58245;BME280;44550;43.864;25.986;2024-01-06T09:33:39;100635.66;;;9.82;95.13
58245;BME280;44550;43.864;25.986;2024-01-06T09:37:44;100625.31;;;9.94;95.06
58245;BME280;44550;43.864;25.986;2024-01-06T09:41:47;100627.09;;;9.97;94.86
58245;BME280;44550;43.864;25.986;2024-01-06T09:45:58;100619.25;;;9.97;96.08
58245;BME280;44550;43.864;25.986;2024-01-06T09:50:09;100607.91;;;9.96;96.86
58245;BME280;44550;43.864;25.986;2024-01-06T09:54:12;100610.44;;;9.84;97.79
58245;BME280;44550;43.864;25.986;2024-01-06T09:58:16;100599.81;;;9.62;98.72
58245;BME280;44550;43.864;25.986;2024-01-06T10:02:18;100580.50;;;9.42;100.00
58245;BME280;44550;43.864;25.986;2024-01-06T10:06:21;100574.06;;;9.05;100.00
58245;BME280;44550;43.864;25.986;2024-01-06T10:10:23;100569.03;;;9.25;100.00
58245;BME280;44550;43.864;25.986;2024-01-06T10:14:26;100564.00;;;9.46;100.00
58245;BME280;44550;43.864;25.986;2024-01-06T10:18:28;100536.16;;;9.45;100.00
58245;BME280;44550;43.864;25.986;2024-01-06T10:22:29;100553.84;;;9.83;100.00
58245;BME280;44550;43.864;25.986;2024-01-06T10:26:29;100546.16;;;10.04;100.00
58245;BME280;44550;43.864;25.986;2024-01-06T10:30:33;100544.53;;;10.25;100.00
58245;BME280;44550;43.864;25.986;2024-01-06T10:34:34;100537.63;;;10.31;100.00
58245;BME280;44550;43.864;25.986;2024-01-06T10:38:36;100519.34;;;10.38;99.78
58245;BME280;44550;43.864;25.986;2024-01-06T10:42:38;100501.13;;;10.54;100.00
58245;BME280;44550;43.864;25.986;2024-01-06T10:46:46;100502.06;;;10.81;98.55
58245;BME280;44550;43.864;25.986;2024-01-06T10:50:52;100495.97;;;10.96;94.79
58245;BME280;44550;43.864;25.986;2024-01-06T10:55:00;100495.94;;;10.71;97.02
58245;BME280;44550;43.864;25.986;2024-01-06T10:59:03;100487.28;;;11.20;94.21
58245;BME280;44550;43.864;25.986;2024-01-06T11:03:09;100489.03;;;11.13;95.07
58245;BME280;44550;43.864;25.986;2024-01-06T11:07:10;100466.28;;;11.61;93.52
58245;BME280;44550;43.864;25.986;2024-01-06T11:11:11;100474.13;;;11.90;92.72
58245;BME280;44550;43.864;25.986;2024-01-06T11:15:38;100460.19;;;11.58;92.94
58245;BME280;44550;43.864;25.986;2024-01-06T11:19:44;100455.75;;;11.81;94.63
58245;BME280;44550;43.864;25.986;2024-01-06T11:24:17;100466.16;;;12.12;93.57
58245;BME280;44550;43.864;25.986;2024-01-06T11:28:22;100461.63;;;12.51;90.27
58245;BME280;44550;43.864;25.986;2024-01-06T11:32:27;100454.53;;;12.69;87.65
58245;BME280;44550;43.864;25.986;2024-01-06T11:36:34;100464.84;;;12.96;87.08
58245;BME280;44550;43.864;25.986;2024-01-06T11:40:36;100451.72;;;12.94;86.50
58245;BME280;44550;43.864;25.986;2024-01-06T11:44:44;100446.50;;;12.92;86.66
58245;BME280;44550;43.864;25.986;2024-01-06T11:48:45;100450.84;;;12.93;86.08
58245;BME280;44550;43.864;25.986;2024-01-06T11:52:53;100442.28;;;12.67;86.87
58245;BME280;44550;43.864;25.986;2024-01-06T11:56:53;100446.63;;;12.73;88.53
58245;BME280;44550;43.864;25.986;2024-01-06T12:00:57;100438.75;;;12.76;87.64
58245;BME280;44550;43.864;25.986;2024-01-06T12:04:58;100438.75;;;12.76;87.67
58245;BME280;44550;43.864;25.986;2024-01-06T12:09:07;100435.88;;;13.06;87.27
58245;BME280;44550;43.864;25.986;2024-01-06T12:13:11;100421.97;;;12.98;86.06
58245;BME280;44550;43.864;25.986;2024-01-06T12:17:15;100431.34;;;13.31;85.59
58245;BME280;44550;43.864;25.986;2024-01-06T12:21:19;100433.00;;;13.37;83.22
58245;BME280;44550;43.864;25.986;2024-01-06T12:25:24;100428.72;;;13.28;84.13
58245;BME280;44550;43.864;25.986;2024-01-06T12:29:27;100438.19;;;13.45;82.17
58245;BME280;44550;43.864;25.986;2024-01-06T12:33:30;100427.66;;;13.46;80.51
58245;BME280;44550;43.864;25.986;2024-01-06T12:37:38;100421.66;;;13.33;81.63
58245;BME280;44550;43.864;25.986;2024-01-06T12:41:50;100442.31;;;13.69;81.06
58245;BME280;44550;43.864;25.986;2024-01-06T12:45:50;100438.97;;;13.53;79.46
58245;BME280;44550;43.864;25.986;2024-01-06T12:49:55;100448.75;;;13.37;79.86
58245;BME280;44550;43.864;25.986;2024-01-06T12:54:00;100453.13;;;13.41;80.75
58245;BME280;44550;43.864;25.986;2024-01-06T12:58:07;100449.34;;;13.67;79.44
58245;BME280;44550;43.864;25.986;2024-01-06T13:02:11;100453.59;;;13.80;78.81
58245;BME280;44550;43.864;25.986;2024-01-06T13:06:20;100451.78;;;13.83;78.99
58245;BME280;44550;43.864;25.986;2024-01-06T13:10:43;100441.16;;;13.96;79.03
58245;BME280;44550;43.864;25.986;2024-01-06T13:14:54;100437.50;;;14.07;79.07
58245;BME280;44550;43.864;25.986;2024-01-06T13:19:00;100448.09;;;14.00;79.99
58245;BME280;44550;43.864;25.986;2024-01-06T13:23:22;100434.88;;;14.07;79.09
58245;BME280;44550;43.864;25.986;2024-01-06T13:27:30;100417.63;;;13.85;80.24
58245;BME280;44550;43.864;25.986;2024-01-06T13:31:41;100422.97;;;13.76;80.60
58245;BME280;44550;43.864;25.986;2024-01-06T13:35:43;100421.47;;;13.55;82.03
58245;BME280;44550;43.864;25.986;2024-01-06T13:39:47;100409.06;;;13.68;81.54
58245;BME280;44550;43.864;25.986;2024-01-06T13:43:51;100400.50;;;13.49;81.63
58245;BME280;44550;43.864;25.986;2024-01-06T13:48:07;100394.63;;;13.25;83.16
58245;BME280;44550;43.864;25.986;2024-01-06T13:52:12;100392.19;;;12.98;84.85
58245;BME280;44550;43.864;25.986;2024-01-06T13:56:16;100419.44;;;12.81;86.89
58245;BME280;44550;43.864;25.986;2024-01-06T14:00:18;100415.22;;;12.65;88.47
58245;BME280;44550;43.864;25.986;2024-01-06T14:04:27;100414.41;;;12.51;89.28
58245;BME280;44550;43.864;25.986;2024-01-06T14:08:28;100345.56;;;12.22;89.46
58245;BME280;44550;43.864;25.986;2024-01-06T14:12:36;100389.88;;;12.59;88.53
58245;BME280;44550;43.864;25.986;2024-01-06T14:16:42;100404.72;;;12.65;88.32
58245;BME280;44550;43.864;25.986;2024-01-06T14:20:49;100394.13;;;12.79;87.86
58245;BME280;44550;43.864;25.986;2024-01-06T14:24:56;100379.09;;;12.94;86.14
58245;BME280;44550;43.864;25.986;2024-01-06T14:29:04;100373.53;;;13.34;83.83
58245;BME280;44550;43.864;25.986;2024-01-06T14:33:09;100380.53;;;13.32;84.10
58245;BME280;44550;43.864;25.986;2024-01-06T14:37:21;100391.31;;;13.02;85.94
58245;BME280;44550;43.864;25.986;2024-01-06T14:41:34;100386.97;;;12.94;86.52
58245;BME280;44550;43.864;25.986;2024-01-06T14:45:38;100395.63;;;13.04;86.56
58245;BME280;44550;43.864;25.986;2024-01-06T14:49:45;100406.13;;;13.09;86.11
58245;BME280;44550;43.864;25.986;2024-01-06T14:53:52;100406.09;;;13.10;85.64
58245;BME280;44550;43.864;25.986;2024-01-06T14:58:01;100408.63;;;13.24;85.55
58245;BME280;44550;43.864;25.986;2024-01-06T15:02:22;100392.75;;;13.36;84.61
58245;BME280;44550;43.864;25.986;2024-01-06T15:06:48;100385.78;;;13.31;84.30
58245;BME280;44550;43.864;25.986;2024-01-06T15:10:51;100382.44;;;13.13;85.79
58245;BME280;44550;43.864;25.986;2024-01-06T15:14:54;100372.13;;;12.90;85.86
58245;BME280;44550;43.864;25.986;2024-01-06T15:18:56;100378.47;;;12.63;87.49
58245;BME280;44550;43.864;25.986;2024-01-06T15:23:01;100374.13;;;12.62;88.62
58245;BME280;44550;43.864;25.986;2024-01-06T15:27:08;100375.16;;;12.37;90.13
58245;BME280;44550;43.864;25.986;2024-01-06T15:31:24;100358.00;;;11.73;94.04
58245;BME280;44550;43.864;25.986;2024-01-06T15:35:42;100362.50;;;11.31;97.40
58245;BME280;44550;43.864;25.986;2024-01-06T15:39:50;100359.06;;;11.00;100.00
58245;BME280;44550;43.864;25.986;2024-01-06T15:43:59;100352.06;;;11.02;99.38
58245;BME280;44550;43.864;25.986;2024-01-06T15:48:13;100354.63;;;11.46;98.46
58245;BME280;44550;43.864;25.986;2024-01-06T15:52:22;100337.09;;;11.58;96.97
58245;BME280;44550;43.864;25.986;2024-01-06T15:56:25;100343.22;;;11.60;96.92
58245;BME280;44550;43.864;25.986;2024-01-06T16:00:31;100328.47;;;11.36;97.46
58245;BME280;44550;43.864;25.986;2024-01-06T16:04:55;100320.66;;;11.20;98.18
58245;BME280;44550;43.864;25.986;2024-01-06T16:09:00;100299.78;;;10.87;99.95
58245;BME280;44550;43.864;25.986;2024-01-06T16:13:14;100297.19;;;10.80;100.00
58245;BME280;44550;43.864;25.986;2024-01-06T16:17:26;100298.03;;;10.95;100.00
58245;BME280;44550;43.864;25.986;2024-01-06T16:21:45;100300.66;;;10.86;100.00
58245;BME280;44550;43.864;25.986;2024-01-06T16:26:12;100295.44;;;10.76;100.00
58245;BME280;44550;43.864;25.986;2024-01-06T16:30:25;100223.97;;;10.71;100.00
58245;BME280;44550;43.864;25.986;2024-01-06T16:34:46;100292.72;;;11.24;100.00
58245;BME280;44550;43.864;25.986;2024-01-06T16:38:55;100297.09;;;11.29;100.00
58245;BME280;44550;43.864;25.986;2024-01-06T16:43:13;100296.28;;;10.91;100.00
58245;BME280;44550;43.864;25.986;2024-01-06T16:47:34;100310.25;;;10.33;100.00
58245;BME280;44550;43.864;25.986;2024-01-06T16:51:46;100303.19;;;9.98;100.00
58245;BME280;44550;43.864;25.986;2024-01-06T16:55:59;100309.28;;;9.94;100.00
58245;BME280;44550;43.864;25.986;2024-01-06T17:00:17;100307.56;;;9.98;100.00
58245;BME280;44550;43.864;25.986;2024-01-06T17:08:57;100292.78;;;10.15;100.00
58245;BME280;44550;43.864;25.986;2024-01-06T17:13:18;100290.97;;;9.89;100.00
58245;BME280;44550;43.864;25.986;2024-01-06T17:18:07;100228.28;;;9.60;100.00
58245;BME280;44550;43.864;25.986;2024-01-06T17:22:22;100270.13;;;10.12;100.00
58245;BME280;44550;43.864;25.986;2024-01-06T17:26:43;100266.66;;;10.24;100.00
58245;BME280;44550;43.864;25.986;2024-01-06T17:30:46;100211.78;;;9.91;100.00
58245;BME280;44550;43.864;25.986;2024-01-06T17:34:48;100232.69;;;10.06;100.00
58245;BME280;44550;43.864;25.986;2024-01-06T17:39:05;100253.63;;;10.44;100.00
58245;BME280;44550;43.864;25.986;2024-01-06T17:43:16;100245.78;;;10.67;100.00
58245;BME280;44550;43.864;25.986;2024-01-06T17:47:20;100240.47;;;10.92;100.00
58245;BME280;44550;43.864;25.986;2024-01-06T17:51:29;100248.28;;;11.16;100.00
58245;BME280;44550;43.864;25.986;2024-01-06T17:55:32;100239.41;;;11.52;100.00
58245;BME280;44550;43.864;25.986;2024-01-06T17:59:41;100235.00;;;11.51;100.00
58245;BME280;44550;43.864;25.986;2024-01-06T18:03:43;100201.16;;;11.16;100.00
58245;BME280;44550;43.864;25.986;2024-01-06T18:07:58;100206.31;;;11.33;100.00
58245;BME280;44550;43.864;25.986;2024-01-06T18:12:03;100227.88;;;11.78;100.00
58245;BME280;44550;43.864;25.986;2024-01-06T18:16:21;100221.50;;;12.22;100.00
58245;BME280;44550;43.864;25.986;2024-01-06T18:21:04;100221.38;;;12.36;98.76
58245;BME280;44550;43.864;25.986;2024-01-06T18:25:32;100216.25;;;12.20;98.62
58245;BME280;44550;43.864;25.986;2024-01-06T18:29:41;100191.97;;;11.97;98.51
58245;BME280;44550;43.864;25.986;2024-01-06T18:33:48;100218.22;;;11.92;98.88
58245;BME280;44550;43.864;25.986;2024-01-06T18:37:52;100204.31;;;11.78;99.33
58245;BME280;44550;43.864;25.986;2024-01-06T18:42:02;100198.31;;;11.61;100.00
58245;BME280;44550;43.864;25.986;2024-01-06T18:46:09;100195.72;;;11.59;100.00
58245;BME280;44550;43.864;25.986;2024-01-06T18:50:21;100193.94;;;11.66;99.57
58245;BME280;44550;43.864;25.986;2024-01-06T18:54:34;100193.94;;;11.61;99.34
58245;BME280;44550;43.864;25.986;2024-01-06T18:58:49;100191.44;;;11.38;99.87
58245;BME280;44550;43.864;25.986;2024-01-06T19:03:21;100175.94;;;10.98;100.00
58245;BME280;44550;43.864;25.986;2024-01-06T19:08:08;100142.94;;;10.70;100.00
58245;BME280;44550;43.864;25.986;2024-01-06T19:12:26;100172.53;;;10.69;100.00
58245;BME280;44550;43.864;25.986;2024-01-06T19:16:56;100165.59;;;10.58;100.00
58245;BME280;44550;43.864;25.986;2024-01-06T19:21:01;100161.25;;;10.59;100.00
58245;BME280;44550;43.864;25.986;2024-01-06T19:25:15;100152.50;;;10.68;100.00
58245;BME280;44550;43.864;25.986;2024-01-06T19:40:43;100122.97;;;9.58;100.00
58245;BME280;44550;43.864;25.986;2024-01-06T19:50:29;100095.94;;;9.16;100.00
58245;BME280;44550;43.864;25.986;2024-01-06T19:55:01;100064.63;;;9.03;100.00
58245;BME280;44550;43.864;25.986;2024-01-06T19:59:28;100089.94;;;9.51;100.00
58245;BME280;44550;43.864;25.986;2024-01-06T20:03:29;100089.94;;;9.83;100.00
58245;BME280;44550;43.864;25.986;2024-01-06T20:07:33;100051.63;;;9.73;100.00
58245;BME280;44550;43.864;25.986;2024-01-06T20:11:42;100043.81;;;9.87;100.00
58245;BME280;44550;43.864;25.986;2024-01-06T20:15:55;100073.38;;;9.86;100.00
58245;BME280;44550;43.864;25.986;2024-01-06T20:20:01;100070.72;;;9.17;100.00
58245;BME280;44550;43.864;25.986;2024-01-06T20:24:04;100022.84;;;8.72;100.00
58245;BME280;44550;43.864;25.986;2024-01-06T20:28:07;100073.25;;;8.79;100.00
58245;BME280;44550;43.864;25.986;2024-01-06T20:32:14;100061.91;;;8.61;100.00
58245;BME280;44550;43.864;25.986;2024-01-06T20:36:15;100054.13;;;8.74;100.00
58245;BME280;44550;43.864;25.986;2024-01-06T20:40:19;100055.88;;;8.76;100.00
58245;BME280;44550;43.864;25.986;2024-01-06T20:44:19;99994.09;;;8.51;100.00
58245;BME280;44550;43.864;25.986;2024-01-06T20:48:26;100056.81;;;8.95;100.00
58245;BME280;44550;43.864;25.986;2024-01-06T20:52:37;100053.38;;;9.28;100.00
58245;BME280;44550;43.864;25.986;2024-01-06T20:56:52;100044.69;;;9.25;100.00
58245;BME280;44550;43.864;25.986;2024-01-06T21:01:06;100000.19;;;8.54;100.00
58245;BME280;44550;43.864;25.986;2024-01-06T21:14:45;100026.34;;;8.82;100.00
58245;BME280;44550;43.864;25.986;2024-01-06T21:19:24;100028.97;;;9.00;100.00
58245;BME280;44550;43.864;25.986;2024-01-06T21:24:00;99962.91;;;8.86;100.00
58245;BME280;44550;43.864;25.986;2024-01-06T21:28:19;100016.81;;;9.07;100.00
58245;BME280;44550;43.864;25.986;2024-01-06T21:32:37;100020.31;;;9.04;100.00
58245;BME280;44550;43.864;25.986;2024-01-06T21:36:41;100011.50;;;8.56;100.00
58245;BME280;44550;43.864;25.986;2024-01-06T21:40:50;99960.13;;;8.21;100.00
58245;BME280;44550;43.864;25.986;2024-01-06T21:44:54;100002.78;;;8.46;100.00